createdAt,value
2023-04-21T00:01:55.667Z,16.98
2023-04-21T00:04:24.168Z,17.01
2023-04-21T00:06:53.512Z,17.04
2023-04-21T00:09:22.726Z,17.08
2023-04-21T00:11:50.790Z,17.10
2023-04-21T00:14:19.039Z,17.07
2023-04-21T00:16:47.766Z,16.95
2023-04-21T00:19:16.269Z,16.83
2023-04-21T00:21:44.499Z,16.79
2023-04-21T00:24:12.514Z,16.78
2023-04-21T00:26:40.594Z,16.72
2023-04-21T00:29:08.824Z,16.60
2023-04-21T00:31:37.173Z,16.48
2023-04-21T00:34:06.508Z,16.38
2023-04-21T00:36:34.785Z,16.26
2023-04-21T00:39:04.048Z,16.17
2023-04-21T00:41:32.102Z,16.16
2023-04-21T00:44:41.934Z,15.00
2023-04-21T00:47:10.204Z,16.02
2023-04-21T00:49:38.569Z,16.15
2023-04-21T00:52:06.704Z,16.21
2023-04-21T00:54:38.401Z,16.16
2023-04-21T00:57:10.271Z,16.12
2023-04-21T00:59:38.553Z,16.10
2023-04-21T01:02:07.168Z,16.09
2023-04-21T01:04:40.342Z,16.10
2023-04-21T01:07:10.235Z,16.11
2023-04-21T01:09:38.560Z,16.13
2023-04-21T01:12:08.994Z,16.14
2023-04-21T01:14:38.969Z,16.16
2023-04-21T01:17:08.252Z,16.20
2023-04-21T01:19:42.033Z,16.24
2023-04-21T01:22:13.939Z,16.27
2023-04-21T01:24:43.688Z,16.28
2023-04-21T01:27:14.739Z,16.31
2023-04-21T01:29:43.583Z,16.36
2023-04-21T01:32:13.908Z,16.40
2023-04-21T01:34:42.008Z,16.45
2023-04-21T01:37:12.818Z,16.43
2023-04-21T01:39:46.368Z,16.37
2023-04-21T01:42:14.703Z,16.32
2023-04-21T01:44:43.598Z,16.29
2023-04-21T01:47:11.645Z,16.28
2023-04-21T01:49:41.203Z,16.25
2023-04-21T01:52:09.352Z,16.20
2023-04-21T01:54:37.647Z,16.18
2023-04-21T01:57:07.081Z,16.13
2023-04-21T01:59:35.306Z,16.08
2023-04-21T02:02:04.239Z,16.04
2023-04-21T02:04:35.216Z,16.02
2023-04-21T02:07:03.728Z,16.00
2023-04-21T02:09:32.048Z,15.97
2023-04-21T02:12:00.585Z,15.89
2023-04-21T02:14:28.770Z,15.86
2023-04-21T02:16:57.555Z,15.86
2023-04-21T02:19:25.724Z,15.90
2023-04-21T02:21:56.459Z,15.93
2023-04-21T02:24:24.484Z,15.99
2023-04-21T02:26:54.460Z,16.00
2023-04-21T02:29:22.726Z,16.02
2023-04-21T02:31:59.332Z,16.00
2023-04-21T02:34:29.967Z,15.95
2023-04-21T02:36:59.458Z,15.92
2023-04-21T02:39:27.732Z,15.86
2023-04-21T02:41:56.052Z,15.80
2023-04-21T02:44:24.175Z,15.80
2023-04-21T02:46:52.386Z,15.79
2023-04-21T02:49:22.024Z,15.78
2023-04-21T02:51:50.448Z,15.76
2023-04-21T02:54:18.610Z,15.72
2023-04-21T02:56:46.825Z,15.71
2023-04-21T02:59:16.839Z,15.71
2023-04-21T03:01:46.514Z,15.77
2023-04-21T03:04:14.752Z,15.82
2023-04-21T03:06:43.004Z,15.83
2023-04-21T03:09:11.555Z,15.81
2023-04-21T03:11:39.832Z,15.83
2023-04-21T03:14:08.019Z,15.91
2023-04-21T03:16:36.474Z,15.96
2023-04-21T03:19:04.879Z,15.98
2023-04-21T03:21:32.963Z,16.05
2023-04-21T03:24:01.617Z,16.09
2023-04-21T03:26:30.778Z,16.07
2023-04-21T03:28:59.833Z,16.04
2023-04-21T03:31:28.308Z,16.03
2023-04-21T03:33:56.433Z,16.00
2023-04-21T03:36:24.758Z,16.00
2023-04-21T03:38:52.900Z,16.02
2023-04-21T03:41:21.131Z,16.06
2023-04-21T03:43:52.307Z,16.15
2023-04-21T03:46:21.414Z,16.26
2023-04-21T03:48:49.745Z,16.34
2023-04-21T03:51:17.879Z,16.39
2023-04-21T03:53:46.127Z,16.42
2023-04-21T03:56:14.267Z,16.46
2023-04-21T03:58:42.905Z,16.50
2023-04-21T04:01:11.057Z,16.54
2023-04-21T04:03:39.611Z,16.56
2023-04-21T04:06:08.253Z,16.63
2023-04-21T04:08:36.787Z,16.71
2023-04-21T04:11:05.157Z,16.76
2023-04-21T04:13:33.291Z,16.78
2023-04-21T04:16:01.680Z,16.78
2023-04-21T04:18:30.279Z,16.77
2023-04-21T04:20:58.423Z,16.74
2023-04-21T04:23:27.067Z,16.71
2023-04-21T04:25:56.244Z,16.64
2023-04-21T04:28:24.372Z,16.58
2023-04-21T04:30:53.227Z,16.55
2023-04-21T04:33:21.983Z,16.53
2023-04-21T04:35:51.350Z,16.51
2023-04-21T04:38:19.901Z,16.49
2023-04-21T04:40:54.313Z,16.51
2023-04-21T04:43:23.607Z,16.57
2023-04-21T04:45:52.160Z,16.65
2023-04-21T04:48:20.266Z,16.76
2023-04-21T04:50:48.397Z,16.90
2023-04-21T04:53:16.761Z,17.06
2023-04-21T04:55:45.022Z,17.15
2023-04-21T04:58:13.524Z,17.24
2023-04-21T05:00:41.635Z,17.32
2023-04-21T05:03:10.191Z,17.43
2023-04-21T05:05:38.516Z,17.55
2023-04-21T05:08:07.366Z,17.76
2023-04-21T05:10:35.894Z,18.20
2023-04-21T05:13:04.096Z,18.88
2023-04-21T05:15:36.798Z,19.73
2023-04-21T05:18:05.721Z,20.63
2023-04-21T05:20:33.951Z,21.48
2023-04-21T05:23:02.384Z,22.32
2023-04-21T05:25:30.668Z,23.16
2023-04-21T05:27:58.891Z,23.97
2023-04-21T05:30:27.160Z,24.72
2023-04-21T05:32:55.482Z,25.36
2023-04-21T05:35:23.572Z,25.86
2023-04-21T05:37:51.693Z,26.22
2023-04-21T05:40:19.958Z,26.49
2023-04-21T05:42:48.444Z,26.90
2023-04-21T05:45:16.718Z,27.29
2023-04-21T05:47:44.934Z,27.70
2023-04-21T05:50:13.315Z,28.07
2023-04-21T05:52:41.674Z,28.40
2023-04-21T05:55:10.039Z,28.69
2023-04-21T05:57:38.437Z,28.84
2023-04-21T06:00:07.538Z,28.88
2023-04-21T06:02:36.185Z,28.97
2023-04-21T06:05:05.622Z,28.84
2023-04-21T06:07:37.299Z,28.60
2023-04-21T06:10:06.569Z,28.34
2023-04-21T06:12:34.772Z,28.21
2023-04-21T06:15:03.099Z,28.31
2023-04-21T06:17:31.526Z,28.44
2023-04-21T06:20:00.000Z,28.51
2023-04-21T06:22:28.367Z,28.50
2023-04-21T06:24:57.565Z,28.65
2023-04-21T06:27:26.702Z,28.69
2023-04-21T06:29:56.095Z,28.76
2023-04-21T06:32:24.189Z,28.78
2023-04-21T06:34:53.033Z,28.75
2023-04-21T06:37:21.207Z,28.74
2023-04-21T06:39:49.516Z,28.73
2023-04-21T06:42:17.967Z,28.72
2023-04-21T06:44:47.398Z,28.67
2023-04-21T06:47:17.243Z,28.45
2023-04-21T06:49:46.125Z,28.15
2023-04-21T06:52:14.792Z,27.72
2023-04-21T06:54:42.941Z,27.32
2023-04-21T06:57:11.624Z,26.98
2023-04-21T06:59:39.803Z,26.60
2023-04-21T07:02:08.018Z,26.45
2023-04-21T07:04:37.220Z,26.63
2023-04-21T07:07:05.679Z,26.90
2023-04-21T07:09:34.161Z,27.06
2023-04-21T07:12:03.093Z,27.18
2023-04-21T07:14:31.373Z,27.31
2023-04-21T07:16:59.710Z,27.40
2023-04-21T07:19:28.391Z,27.39
2023-04-21T07:21:56.572Z,27.43
2023-04-21T07:24:24.842Z,27.44
2023-04-21T07:26:53.011Z,27.57
2023-04-21T07:29:21.555Z,27.56
2023-04-21T07:31:49.700Z,27.44
2023-04-21T07:34:17.770Z,27.35
2023-04-21T07:36:46.136Z,27.16
2023-04-21T07:39:14.267Z,26.98
2023-04-21T07:41:42.476Z,26.90
2023-04-21T07:44:10.750Z,26.92
2023-04-21T07:46:39.152Z,26.87
2023-04-21T07:49:07.517Z,26.89
2023-04-21T07:51:37.437Z,26.87
2023-04-21T07:54:05.849Z,26.92
2023-04-21T07:56:49.230Z,26.77
2023-04-21T07:59:17.475Z,26.38
2023-04-21T08:01:46.313Z,25.98
2023-04-21T08:04:14.972Z,25.87
2023-04-21T08:06:56.509Z,25.93
2023-04-21T08:09:29.389Z,25.70
2023-04-21T08:12:04.906Z,25.21
2023-04-21T08:14:35.054Z,24.87
2023-04-21T08:17:04.281Z,24.92
2023-04-21T08:19:32.317Z,25.10
2023-04-21T08:22:00.925Z,25.24
2023-04-21T08:24:29.382Z,25.07
2023-04-21T08:26:57.973Z,24.82
2023-04-21T08:29:26.263Z,24.71
2023-04-21T08:31:54.549Z,24.67
2023-04-21T08:34:24.983Z,24.66
2023-04-21T08:36:54.866Z,24.55
2023-04-21T08:39:23.071Z,24.30
2023-04-21T08:41:53.072Z,24.03
2023-04-21T08:44:21.745Z,23.88
2023-04-21T08:46:53.213Z,23.76
2023-04-21T08:49:21.715Z,23.73
2023-04-21T08:51:50.150Z,23.74
2023-04-21T08:54:18.297Z,23.60
2023-04-21T08:56:48.182Z,23.39
2023-04-21T08:59:16.848Z,23.34
2023-04-21T09:02:11.125Z,23.36
2023-04-21T09:04:41.291Z,23.25
2023-04-21T09:07:10.044Z,23.11
2023-04-21T09:09:55.539Z,23.12
2023-04-21T09:12:24.871Z,23.07
2023-04-21T09:14:53.321Z,23.03
2023-04-21T09:17:23.690Z,23.01
2023-04-21T09:19:52.433Z,23.06
2023-04-21T09:22:20.848Z,23.09
2023-04-21T09:24:49.301Z,23.04
2023-04-21T09:27:17.772Z,22.93
2023-04-21T09:29:48.421Z,22.71
2023-04-21T09:32:20.190Z,22.49
2023-04-21T09:34:48.383Z,22.28
2023-04-21T09:37:18.818Z,22.26
2023-04-21T09:40:03.656Z,22.34
2023-04-21T09:42:36.130Z,22.45
2023-04-21T09:45:32.497Z,22.47
2023-04-21T09:48:01.844Z,22.35
2023-04-21T09:53:02.609Z,21.97
2023-04-21T09:55:31.314Z,21.91
2023-04-21T09:58:00.992Z,21.90
2023-04-21T10:00:31.196Z,21.89
2023-04-21T10:02:59.516Z,21.89
2023-04-21T10:05:28.263Z,21.76
2023-04-21T10:07:56.576Z,21.63
2023-04-21T10:10:29.121Z,21.59
2023-04-21T10:12:57.429Z,21.59
2023-04-21T10:15:33.163Z,21.62
2023-04-21T10:18:23.108Z,21.67
2023-04-21T10:20:55.872Z,21.61
2023-04-21T10:23:30.071Z,21.58
2023-04-21T10:26:06.848Z,21.59
2023-04-21T10:29:06.663Z,21.49
2023-04-21T10:31:35.181Z,21.38
2023-04-21T10:34:06.818Z,21.37
2023-04-21T10:36:36.463Z,21.38
2023-04-21T10:39:04.921Z,21.27
2023-04-21T10:41:36.287Z,21.10
2023-04-21T10:44:12.189Z,21.18
2023-04-21T10:46:41.553Z,21.33
2023-04-21T10:49:11.455Z,21.45
2023-04-21T10:51:58.378Z,21.53
2023-04-21T10:54:27.320Z,21.34
2023-04-21T10:56:57.198Z,21.08
2023-04-21T10:59:26.591Z,20.95
2023-04-21T11:01:55.248Z,20.91
2023-04-21T11:04:24.211Z,20.93
2023-04-21T11:07:12.468Z,21.01
2023-04-21T11:09:42.034Z,20.95
2023-04-21T11:12:13.645Z,20.63
2023-04-21T11:14:43.520Z,20.58
2023-04-21T11:17:19.201Z,20.50
2023-04-21T11:19:54.272Z,20.00
2023-04-21T11:22:24.282Z,20.08
2023-04-21T11:24:57.156Z,20.15
2023-04-21T11:27:29.930Z,20.15
2023-04-21T11:29:58.333Z,20.21
2023-04-21T11:32:26.713Z,20.33
2023-04-21T11:34:54.837Z,20.59
2023-04-21T11:37:29.237Z,20.76
2023-04-21T11:39:59.033Z,20.83
2023-04-21T11:42:27.300Z,20.90
2023-04-21T11:44:56.825Z,20.96
2023-04-21T11:47:26.904Z,21.04
2023-04-21T11:50:01.168Z,21.08
2023-04-21T11:52:34.572Z,21.15
2023-04-21T11:55:04.039Z,21.15
2023-04-21T11:57:33.064Z,21.06
2023-04-21T12:00:02.381Z,21.01
2023-04-21T12:02:33.810Z,20.96
2023-04-21T12:05:02.582Z,20.89
2023-04-21T12:07:36.712Z,20.87
2023-04-21T12:10:23.092Z,20.90
2023-04-21T12:12:51.894Z,21.04
2023-04-21T12:15:21.849Z,21.22
2023-04-21T12:17:54.413Z,21.41
2023-04-21T12:20:25.138Z,21.54
2023-04-21T12:22:53.705Z,21.48
2023-04-21T12:25:22.073Z,21.36
2023-04-21T12:27:54.467Z,21.20
2023-04-21T12:30:22.475Z,21.26
2023-04-21T12:32:52.467Z,21.46
2023-04-21T12:35:25.789Z,21.70
2023-04-21T12:37:56.056Z,21.86
2023-04-21T12:40:24.222Z,21.98
2023-04-21T12:42:52.711Z,22.14
2023-04-21T12:45:20.859Z,22.27
2023-04-21T12:47:49.245Z,22.44
2023-04-21T12:50:17.761Z,22.54
2023-04-21T12:52:46.019Z,22.64
2023-04-21T12:55:14.311Z,22.77
2023-04-21T12:57:42.803Z,22.90
2023-04-21T13:02:54.448Z,21.89
2023-04-21T13:05:22.767Z,22.95
2023-04-21T13:07:50.968Z,23.17
2023-04-21T13:10:19.233Z,23.35
2023-04-21T13:12:47.724Z,23.53
2023-04-21T13:15:15.996Z,23.70
2023-04-21T13:17:44.270Z,23.77
2023-04-21T13:20:12.466Z,23.75
2023-04-21T13:22:41.455Z,23.76
2023-04-21T13:25:09.927Z,23.73
2023-04-21T13:27:40.117Z,23.75
2023-04-21T13:30:10.649Z,23.83
2023-04-21T13:32:39.794Z,23.91
2023-04-21T13:35:11.725Z,23.90
2023-04-21T13:37:40.853Z,23.83
2023-04-21T13:40:10.278Z,23.69
2023-04-21T13:42:39.184Z,23.53
2023-04-21T13:52:46.045Z,23.53
2023-04-21T13:55:14.875Z,23.57
2023-04-21T13:57:42.977Z,23.49
2023-04-21T14:00:12.219Z,23.42
2023-04-21T14:02:42.178Z,23.43
2023-04-21T14:05:11.178Z,23.46
2023-04-21T14:07:41.813Z,23.53
2023-04-21T14:10:12.165Z,23.63
2023-04-21T14:12:40.658Z,23.74
2023-04-21T14:15:09.325Z,23.78
2023-04-21T14:17:37.593Z,23.81
2023-04-21T14:20:07.474Z,23.77
2023-04-21T14:22:36.165Z,23.72
2023-04-21T14:25:04.663Z,23.73
2023-04-21T14:27:34.574Z,23.70
2023-04-21T14:30:03.091Z,23.71
2023-04-21T14:32:31.902Z,23.79
2023-04-21T14:35:03.359Z,23.86
2023-04-21T14:37:31.808Z,23.94
2023-04-21T14:40:00.194Z,24.00
2023-04-21T14:42:28.399Z,24.03
2023-04-21T14:44:56.449Z,24.06
2023-04-21T14:47:24.765Z,24.10
2023-04-21T14:49:55.586Z,24.12
2023-04-21T14:52:27.302Z,24.13
2023-04-21T14:54:55.556Z,24.10
2023-04-21T14:57:24.340Z,23.91
2023-04-21T14:59:52.856Z,23.58
2023-04-21T15:02:21.477Z,23.43
2023-04-21T15:04:50.129Z,23.14
2023-04-21T15:07:23.298Z,23.10
2023-04-21T15:09:52.585Z,23.08
2023-04-21T15:12:21.095Z,22.94
2023-04-21T15:14:49.136Z,22.88
2023-04-21T15:17:17.534Z,22.92
2023-04-21T15:19:45.835Z,22.95
2023-04-21T15:22:15.421Z,22.93
2023-04-21T15:24:44.020Z,22.91
2023-04-21T15:27:12.410Z,22.80
2023-04-21T15:29:40.546Z,22.74
2023-04-21T15:32:08.940Z,22.76
2023-04-21T15:34:37.097Z,22.81
2023-04-21T15:37:05.707Z,22.84
2023-04-21T15:39:34.326Z,22.89
2023-04-21T15:42:04.574Z,22.94
2023-04-21T15:44:34.303Z,23.00
2023-04-21T15:47:03.153Z,23.02
2023-04-21T15:49:31.750Z,22.99
2023-04-21T15:52:00.019Z,22.92
2023-04-21T15:54:28.422Z,22.74
2023-04-21T15:56:57.728Z,22.50
2023-04-21T15:59:26.479Z,22.32
2023-04-21T16:01:57.172Z,22.15
2023-04-21T16:04:25.522Z,22.05
2023-04-21T16:06:54.037Z,22.08
2023-04-21T16:09:22.765Z,22.16
2023-04-21T16:11:50.913Z,22.23
2023-04-21T16:14:18.957Z,22.29
2023-04-21T16:16:47.408Z,22.31
2023-04-21T16:19:16.648Z,22.28
2023-04-21T16:21:50.960Z,22.25
2023-04-21T16:24:19.525Z,22.22
2023-04-21T16:26:47.747Z,22.19
2023-04-21T16:29:16.589Z,22.13
2023-04-21T16:31:44.961Z,22.13
2023-04-21T16:34:14.043Z,22.15
2023-04-21T16:36:42.192Z,22.17
2023-04-21T16:39:10.366Z,22.18
2023-04-21T16:41:38.608Z,22.18
2023-04-21T16:44:06.972Z,22.18
2023-04-21T16:46:35.606Z,22.20
2023-04-21T16:49:03.942Z,22.22
2023-04-21T16:51:32.708Z,22.22
2023-04-21T16:54:00.793Z,22.18
2023-04-21T16:56:29.439Z,22.13
2023-04-21T16:58:57.507Z,22.04
2023-04-21T17:01:25.641Z,21.90
2023-04-21T17:03:54.159Z,21.84
2023-04-21T17:06:22.899Z,21.82
2023-04-21T17:08:52.354Z,21.79
2023-04-21T17:11:20.739Z,21.78
2023-04-21T17:13:48.687Z,21.77
2023-04-21T17:16:17.241Z,21.75
2023-04-21T17:18:53.235Z,21.74
2023-04-21T17:21:21.849Z,21.73
2023-04-21T17:23:50.525Z,21.74
2023-04-21T17:26:18.830Z,21.75
2023-04-21T17:28:47.296Z,21.76
2023-04-21T17:31:16.328Z,21.76
2023-04-21T17:33:45.778Z,21.75
2023-04-21T17:36:44.428Z,21.74
2023-04-21T17:39:26.988Z,21.74
2023-04-21T17:41:55.060Z,21.73
2023-04-21T17:44:23.549Z,21.70
2023-04-21T17:46:52.451Z,21.67
2023-04-21T17:49:23.177Z,21.66
2023-04-21T17:51:51.886Z,21.63
2023-04-21T17:54:20.266Z,21.43
2023-04-21T17:56:50.540Z,21.19
2023-04-21T17:59:19.044Z,21.07
2023-04-21T18:01:47.281Z,21.07
2023-04-21T18:04:17.175Z,21.10
2023-04-21T18:06:45.592Z,21.09
2023-04-21T18:09:13.737Z,20.99
2023-04-21T18:11:41.854Z,20.89
2023-04-21T18:14:10.460Z,20.85
2023-04-21T18:16:38.734Z,20.84
2023-04-21T18:19:11.629Z,20.81
2023-04-21T18:21:40.238Z,20.74
2023-04-21T18:24:08.327Z,20.72
2023-04-21T18:26:36.837Z,20.72
2023-04-21T18:29:04.983Z,20.69
2023-04-21T18:31:33.550Z,20.68
2023-04-21T18:34:01.773Z,20.68
2023-04-21T18:36:32.930Z,20.69
2023-04-21T18:39:01.954Z,20.69
2023-04-21T18:41:30.777Z,20.70
2023-04-21T18:43:58.924Z,20.72
2023-04-21T18:46:27.303Z,20.72
2023-04-21T18:48:55.599Z,20.73
2023-04-21T18:51:24.267Z,20.73
2023-04-21T18:53:52.379Z,20.72
2023-04-21T18:56:20.863Z,20.72
2023-04-21T18:58:49.099Z,20.72
2023-04-21T19:01:17.166Z,20.72
2023-04-21T19:03:45.739Z,20.73
2023-04-21T19:06:14.330Z,20.73
2023-04-21T19:08:43.210Z,20.71
2023-04-21T19:11:13.063Z,20.69
2023-04-21T19:13:43.464Z,20.68
2023-04-21T19:16:11.909Z,20.68
2023-04-21T19:18:40.675Z,20.67
2023-04-21T19:21:13.016Z,20.65
2023-04-21T19:23:41.965Z,20.65
2023-04-21T19:26:13.364Z,20.66
2023-04-21T19:28:42.970Z,20.65
2023-04-21T19:31:11.248Z,20.64
2023-04-21T19:33:39.512Z,20.60
2023-04-21T19:36:07.904Z,20.56
2023-04-21T19:38:36.396Z,20.54
2023-04-21T19:41:05.917Z,20.55
2023-04-21T19:43:34.171Z,20.56
2023-04-21T19:46:02.620Z,20.55
2023-04-21T19:48:31.665Z,20.53
2023-04-21T19:51:01.255Z,20.50
2023-04-21T19:53:30.147Z,20.48
2023-04-21T19:55:58.733Z,20.46
2023-04-21T19:58:39.329Z,20.42
2023-04-21T20:01:10.443Z,20.39
2023-04-21T20:03:39.643Z,20.37
2023-04-21T20:06:08.947Z,20.34
2023-04-21T20:08:37.575Z,20.30
2023-04-21T20:11:06.891Z,20.25
2023-04-21T20:13:36.089Z,20.20
2023-04-21T20:16:04.292Z,20.21
2023-04-21T20:18:33.960Z,20.37
2023-04-21T20:21:02.397Z,20.41
2023-04-21T20:23:31.192Z,20.42
2023-04-21T20:25:59.398Z,20.44
2023-04-21T20:28:27.953Z,20.38
2023-04-21T20:30:57.106Z,20.35
2023-04-21T20:33:25.304Z,20.33
2023-04-21T20:35:53.708Z,20.34
2023-04-21T20:38:24.553Z,20.37
2023-04-21T20:40:53.448Z,20.39
2023-04-21T20:43:22.459Z,20.40
2023-04-21T20:45:50.870Z,20.40
2023-04-21T20:48:19.921Z,20.40
2023-04-21T20:50:50.644Z,20.37
2023-04-21T20:53:19.743Z,20.35
2023-04-21T20:55:48.639Z,20.33
2023-04-21T20:58:17.102Z,20.32
2023-04-21T21:00:45.453Z,20.30
2023-04-21T21:03:14.277Z,20.28
2023-04-21T21:05:42.675Z,20.27
2023-04-21T21:08:10.773Z,20.25
2023-04-21T21:10:39.133Z,20.29
2023-04-21T21:13:07.296Z,20.33
2023-04-21T21:15:35.908Z,20.27
2023-04-21T21:18:04.454Z,20.22
2023-04-21T21:20:33.334Z,20.23
2023-04-21T21:23:01.536Z,20.28
2023-04-21T21:25:29.733Z,20.27
2023-04-21T21:27:57.933Z,20.27
2023-04-21T21:30:26.274Z,20.28
2023-04-21T21:32:55.585Z,20.29
2023-04-21T21:35:23.968Z,20.28
2023-04-21T21:37:52.326Z,20.25
2023-04-21T21:40:21.071Z,20.23
2023-04-21T21:42:49.817Z,20.21
2023-04-21T21:45:17.954Z,20.21
2023-04-21T21:47:46.215Z,20.19
2023-04-21T21:50:14.579Z,20.16
2023-04-21T21:52:42.850Z,20.14
2023-04-21T21:55:11.155Z,20.11
2023-04-21T21:57:39.791Z,20.07
2023-04-21T22:00:12.407Z,20.03
2023-04-21T22:02:42.390Z,19.99
2023-04-21T22:05:10.624Z,19.93
2023-04-21T22:07:43.176Z,19.96
2023-04-21T22:10:11.974Z,19.97
2023-04-21T22:12:40.308Z,19.94
2023-04-21T22:15:09.505Z,19.91
2023-04-21T22:17:38.164Z,19.86
2023-04-21T22:20:08.546Z,19.83
2023-04-21T22:22:36.733Z,19.79
2023-04-21T22:25:05.792Z,19.73
2023-04-21T22:27:34.389Z,19.67
2023-04-21T22:30:03.823Z,19.62
2023-04-21T22:32:32.783Z,19.56
2023-04-21T22:35:01.620Z,19.56
2023-04-21T22:37:30.356Z,19.55
2023-04-21T22:39:58.942Z,19.56
2023-04-21T22:42:27.248Z,19.55
2023-04-21T22:44:55.502Z,19.51
2023-04-21T22:47:23.906Z,19.46
2023-04-21T22:49:53.535Z,19.42
2023-04-21T22:52:21.499Z,19.37
2023-04-21T22:54:49.739Z,19.33
2023-04-21T22:57:17.836Z,19.28
2023-04-21T22:59:45.990Z,19.36
2023-04-21T23:02:14.167Z,19.50
2023-04-21T23:04:42.460Z,19.50
2023-04-21T23:07:10.712Z,19.51
2023-04-21T23:09:40.049Z,19.51
2023-04-21T23:12:08.853Z,19.48
2023-04-21T23:14:37.294Z,19.43
2023-04-21T23:17:05.563Z,19.40
2023-04-21T23:19:33.770Z,19.36
2023-04-21T23:22:02.022Z,19.32
2023-04-21T23:24:30.259Z,19.28
2023-04-21T23:26:58.506Z,19.21
2023-04-21T23:29:26.543Z,19.15
2023-04-21T23:31:54.856Z,19.03
2023-04-21T23:34:23.205Z,18.82
2023-04-21T23:36:51.583Z,18.78
2023-04-21T23:39:21.742Z,18.74
2023-04-21T23:41:49.838Z,18.68
2023-04-21T23:44:18.079Z,18.63
2023-04-21T23:46:46.339Z,18.56
2023-04-21T23:49:14.713Z,18.48
2023-04-21T23:51:42.785Z,18.41
2023-04-21T23:54:10.964Z,18.35
2023-04-21T23:56:39.095Z,18.13
2023-04-21T23:59:07.480Z,18.02
